Time;durP1;ratioP1;P1;durP2;ratioP2;P2;SDS_P1;SDS_P2;PMS_P1;PMS_P2;Temp;Humidity;BMP_temperature;BMP_pressure;BME280_temperature;BME280_humidity;BME280_pressure;Samples;Min_cycle;Max_cycle;Signal;HPM_P1;HPM_P2
2024/02/18 00:02:00;;;;;;;23.70;8.13;;;6.30;99.90;;;;;;5062439;28;20084;-72
2024/02/18 00:04:30;;;;;;;25.52;8.07;;;6.20;99.90;;;;;;5061019;28;20024;-70
2024/02/18 00:06:56;;;;;;;19.08;7.43;;;6.20;99.90;;;;;;5062350;28;20013;-69
2024/02/18 00:09:21;;;;;;;21.73;7.75;;;6.30;99.90;;;;;;5060458;28;20051;-71
2024/02/18 00:11:47;;;;;;;31.60;8.77;;;6.30;99.90;;;;;;5062288;28;20045;-69
2024/02/18 00:14:12;;;;;;;19.13;7.90;;;6.30;99.90;;;;;;5062001;28;20045;-70
2024/02/18 00:16:38;;;;;;;26.77;8.18;;;6.20;99.90;;;;;;5061966;28;20017;-71
2024/02/18 00:19:03;;;;;;;21.13;8.15;;;6.20;99.90;;;;;;5062408;28;20108;-72
2024/02/18 00:21:29;;;;;;;26.67;7.47;;;6.20;99.90;;;;;;5060124;28;20051;-70
2024/02/18 00:23:58;;;;;;;20.17;8.43;;;6.20;99.90;;;;;;5061032;28;20105;-70
2024/02/18 00:26:23;;;;;;;24.73;8.30;;;6.20;99.90;;;;;;5060135;28;20051;-69
2024/02/18 00:28:49;;;;;;;24.15;9.13;;;6.40;99.90;;;;;;5061951;28;20032;-70
2024/02/18 00:31:15;;;;;;;21.45;8.15;;;6.20;99.90;;;;;;5061645;28;20032;-69
2024/02/18 00:33:40;;;;;;;23.13;9.13;;;6.20;99.90;;;;;;5062076;28;20051;-69
2024/02/18 00:36:06;;;;;;;20.80;8.93;;;6.20;99.90;;;;;;5062019;28;20036;-71
2024/02/18 00:38:32;;;;;;;18.05;8.98;;;6.20;99.90;;;;;;5061709;28;20025;-69
2024/02/18 00:40:58;;;;;;;29.05;9.48;;;6.10;99.90;;;;;;5062228;28;20025;-69
2024/02/18 00:43:24;;;;;;;26.48;9.65;;;6.30;99.90;;;;;;5061304;28;20052;-70
2024/02/18 00:45:49;;;;;;;21.55;9.18;;;6.20;99.90;;;;;;5061685;28;20047;-70
2024/02/18 00:48:16;;;;;;;26.60;10.07;;;6.30;99.90;;;;;;5060563;28;20070;-70
2024/02/18 00:50:42;;;;;;;23.17;9.90;;;6.30;99.90;;;;;;5061489;28;20037;-70
2024/02/18 00:53:08;;;;;;;25.75;9.93;;;6.40;99.90;;;;;;5061572;28;20029;-68
2024/02/18 00:55:33;;;;;;;18.65;9.57;;;6.30;99.90;;;;;;5061850;28;20032;-71
2024/02/18 00:57:59;;;;;;;20.63;10.10;;;6.30;99.90;;;;;;5061570;28;20092;-71
2024/02/18 01:00:25;;;;;;;26.90;10.32;;;6.40;99.90;;;;;;5061765;28;20028;-69
2024/02/18 01:02:50;;;;;;;32.40;10.95;;;6.40;99.90;;;;;;5061585;28;20036;-70
2024/02/18 01:05:16;;;;;;;23.70;10.40;;;6.40;99.90;;;;;;5060010;28;20025;-69
2024/02/18 01:07:41;;;;;;;26.30;10.88;;;6.40;99.90;;;;;;5061125;28;20065;-71
2024/02/18 01:10:09;;;;;;;28.98;10.98;;;6.30;99.90;;;;;;5061746;28;20031;-71
2024/02/18 01:12:35;;;;;;;25.13;10.85;;;6.30;99.90;;;;;;5059802;28;20397;-69
2024/02/18 01:15:00;;;;;;;24.77;10.05;;;6.40;99.90;;;;;;5060496;28;20023;-70
2024/02/18 01:17:26;;;;;;;25.10;10.23;;;6.40;99.90;;;;;;5061559;28;20546;-69
2024/02/18 01:19:57;;;;;;;27.05;10.73;;;6.40;99.90;;;;;;5059815;28;20044;-69
2024/02/18 01:22:23;;;;;;;25.88;11.30;;;6.30;99.90;;;;;;5061615;28;20025;-71
2024/02/18 01:24:49;;;;;;;26.40;11.10;;;6.40;99.90;;;;;;5061554;28;20039;-71
2024/02/18 01:27:14;;;;;;;29.17;11.32;;;6.40;99.90;;;;;;5061055;28;20053;-70
2024/02/18 01:29:40;;;;;;;21.15;10.25;;;6.40;99.90;;;;;;5061324;28;20028;-69
2024/02/18 01:32:06;;;;;;;28.90;10.90;;;6.50;99.90;;;;;;5061095;28;20219;-71
2024/02/18 01:34:32;;;;;;;26.05;10.85;;;6.50;99.90;;;;;;5061268;28;20024;-72
2024/02/18 01:36:58;;;;;;;23.95;9.95;;;6.50;99.90;;;;;;5061513;28;20033;-72
2024/02/18 01:39:23;;;;;;;24.38;11.25;;;6.50;99.90;;;;;;5061050;28;20023;-70
2024/02/18 01:41:49;;;;;;;21.40;10.43;;;6.60;99.90;;;;;;5061355;28;20028;-70
2024/02/18 01:44:15;;;;;;;25.92;10.90;;;6.40;99.90;;;;;;5061355;28;20017;-70
2024/02/18 01:46:42;;;;;;;26.27;10.90;;;6.40;99.90;;;;;;5060881;28;20032;-70
2024/02/18 01:49:08;;;;;;;21.15;10.68;;;6.40;99.90;;;;;;5060794;28;20050;-71
2024/02/18 01:51:34;;;;;;;21.88;10.55;;;6.40;99.90;;;;;;5061193;28;20028;-71
2024/02/18 01:54:00;;;;;;;23.35;10.60;;;6.40;99.90;;;;;;5060950;28;20077;-71
2024/02/18 01:56:26;;;;;;;25.60;11.50;;;6.40;99.90;;;;;;5061379;28;20048;-70
2024/02/18 01:58:52;;;;;;;24.98;10.63;;;6.50;99.90;;;;;;5059789;28;20071;-71
2024/02/18 02:01:17;;;;;;;24.40;10.32;;;6.50;99.90;;;;;;5060399;28;20499;-70
2024/02/18 02:03:45;;;;;;;28.88;10.75;;;6.40;99.90;;;;;;5061183;28;20025;-69
2024/02/18 02:06:13;;;;;;;30.88;10.23;;;6.40;99.90;;;;;;5063909;28;20059;-70
2024/02/18 02:08:39;;;;;;;23.20;10.68;;;6.40;99.90;;;;;;5063846;28;20071;-70
2024/02/18 02:11:05;;;;;;;21.42;9.45;;;6.50;99.90;;;;;;5063437;28;20037;-71
2024/02/18 02:13:30;;;;;;;24.98;10.00;;;6.30;99.90;;;;;;5064649;28;20630;-69
2024/02/18 02:15:56;;;;;;;23.85;10.55;;;6.50;99.90;;;;;;5064485;28;20090;-68
2024/02/18 02:18:21;;;;;;;24.73;10.30;;;6.40;99.90;;;;;;5064656;28;20033;-70
2024/02/18 02:20:47;;;;;;;29.42;10.35;;;6.30;99.90;;;;;;5064087;28;20033;-69
2024/02/18 02:23:12;;;;;;;21.02;9.73;;;6.30;99.90;;;;;;5064475;28;20050;-69
2024/02/18 02:25:39;;;;;;;20.02;10.20;;;6.30;99.90;;;;;;5064541;28;20096;-71
2024/02/18 02:28:19;;;;;;;23.58;10.32;;;6.30;99.90;;;;;;5064070;28;20017;-71
2024/02/18 02:30:46;;;;;;;25.05;10.23;;;6.30;99.90;;;;;;5064201;28;20039;-70
2024/02/18 02:33:13;;;;;;;22.73;10.50;;;6.30;99.90;;;;;;5064438;28;20021;-70
2024/02/18 02:35:38;;;;;;;24.33;10.68;;;6.30;99.90;;;;;;5063529;28;20025;-71
2024/02/18 02:38:04;;;;;;;21.75;10.77;;;6.30;99.90;;;;;;5062017;28;20059;-70
2024/02/18 02:40:30;;;;;;;23.55;10.13;;;6.30;99.90;;;;;;5064348;28;20021;-70
2024/02/18 02:42:55;;;;;;;28.50;11.27;;;6.40;99.90;;;;;;5062300;28;20035;-71
2024/02/18 02:45:21;;;;;;;22.30;11.05;;;6.40;99.90;;;;;;5064247;28;20013;-69
2024/02/18 02:47:49;;;;;;;27.30;11.77;;;6.40;99.90;;;;;;5063849;28;20040;-69
2024/02/18 02:50:15;;;;;;;27.48;11.50;;;6.40;99.90;;;;;;5063513;28;20439;-70
2024/02/18 02:52:42;;;;;;;25.55;12.20;;;6.40;99.90;;;;;;5063998;28;20033;-70
2024/02/18 02:55:08;;;;;;;30.17;11.68;;;6.40;99.90;;;;;;5063975;28;20044;-71
2024/02/18 02:57:34;;;;;;;27.17;12.32;;;6.50;99.90;;;;;;5061349;28;20040;-72
2024/02/18 02:59:59;;;;;;;30.88;12.55;;;6.50;99.90;;;;;;5063390;28;20021;-70
2024/02/18 03:02:25;;;;;;;27.63;12.90;;;6.50;99.90;;;;;;5063816;28;20434;-70
2024/02/18 03:04:51;;;;;;;28.13;13.15;;;6.50;99.90;;;;;;5063390;28;20080;-71
2024/02/18 03:07:16;;;;;;;27.27;13.07;;;6.50;99.90;;;;;;5063697;28;20029;-71
2024/02/18 03:09:42;;;;;;;30.73;14.93;;;6.60;99.90;;;;;;5063285;28;20370;-69
2024/02/18 03:12:08;;;;;;;32.95;13.82;;;6.60;99.90;;;;;;5063252;28;20041;-70
2024/02/18 03:14:34;;;;;;;32.97;13.35;;;6.60;99.90;;;;;;5063580;28;20086;-70
2024/02/18 03:17:00;;;;;;;29.27;13.85;;;6.80;99.90;;;;;;5062920;28;20033;-69
2024/02/18 03:19:26;;;;;;;32.30;13.60;;;6.60;99.90;;;;;;5061049;28;20036;-71
2024/02/18 03:21:51;;;;;;;33.60;15.15;;;6.60;99.90;;;;;;5062412;28;20017;-71
2024/02/18 03:24:17;;;;;;;35.80;16.13;;;6.70;99.90;;;;;;5062253;28;20025;-72
2024/02/18 03:26:43;;;;;;;34.83;16.30;;;6.70;99.90;;;;;;5062145;28;20052;-70
2024/02/18 03:29:10;;;;;;;37.22;16.42;;;6.60;99.90;;;;;;5061407;28;20119;-72
2024/02/18 03:31:36;;;;;;;38.50;18.40;;;6.70;99.90;;;;;;5062469;28;20044;-70
2024/02/18 03:34:02;;;;;;;37.40;16.63;;;6.80;99.90;;;;;;5063238;28;20029;-70
2024/02/18 03:36:27;;;;;;;38.95;18.27;;;6.80;99.90;;;;;;5063426;28;20091;-69
2024/02/18 03:38:53;;;;;;;41.78;18.27;;;6.80;99.90;;;;;;5061769;28;20029;-68
2024/02/18 03:41:19;;;;;;;41.83;18.85;;;6.70;99.90;;;;;;5062833;28;20021;-69
2024/02/18 03:43:44;;;;;;;49.38;20.38;;;6.70;99.90;;;;;;5062843;28;20036;-70
2024/02/18 03:46:10;;;;;;;47.45;20.25;;;6.80;99.90;;;;;;5062796;28;20037;-69
2024/02/18 03:48:36;;;;;;;50.03;20.92;;;6.90;99.90;;;;;;5063002;28;20048;-70
2024/02/18 03:51:01;;;;;;;52.88;21.67;;;6.90;99.90;;;;;;5061586;28;20121;-71
2024/02/18 03:53:27;;;;;;;46.80;20.58;;;6.80;99.90;;;;;;5062668;28;20499;-69
2024/02/18 03:55:52;;;;;;;47.10;20.75;;;6.90;99.90;;;;;;5062616;28;20025;-70
2024/02/18 03:58:18;;;;;;;48.90;21.80;;;6.90;99.90;;;;;;5061578;28;20509;-69
2024/02/18 04:00:46;;;;;;;52.03;23.30;;;6.90;99.90;;;;;;5062312;28;20083;-70
2024/02/18 04:03:13;;;;;;;52.85;23.40;;;7.00;99.90;;;;;;5062240;28;20389;-71
2024/02/18 04:05:39;;;;;;;59.47;24.42;;;7.00;99.90;;;;;;5062477;28;20041;-69
2024/02/18 04:08:05;;;;;;;63.72;25.52;;;7.00;99.90;;;;;;5060579;28;20153;-70
2024/02/18 04:10:31;;;;;;;59.92;24.10;;;7.00;99.90;;;;;;5061128;28;20064;-70
2024/02/18 04:12:56;;;;;;;63.53;27.08;;;7.00;99.90;;;;;;5062481;28;20029;-72
2024/02/18 04:15:23;;;;;;;69.80;26.98;;;7.00;99.90;;;;;;5062200;28;20041;-70
2024/02/18 04:17:49;;;;;;;64.07;26.75;;;7.00;99.90;;;;;;5062334;28;20036;-71
2024/02/18 04:20:14;;;;;;;64.68;27.52;;;7.10;99.90;;;;;;5062143;28;20024;-70
2024/02/18 04:22:42;;;;;;;70.63;28.92;;;7.00;99.90;;;;;;5061973;28;20028;-71
2024/02/18 04:25:08;;;;;;;69.57;27.40;;;7.00;99.90;;;;;;5061956;28;20017;-69
2024/02/18 04:27:34;;;;;;;65.30;28.33;;;7.10;99.90;;;;;;5059918;28;20025;-70
2024/02/18 04:30:00;;;;;;;68.93;28.55;;;7.10;99.90;;;;;;5062195;28;20051;-71
2024/02/18 04:32:25;;;;;;;61.22;27.80;;;7.10;99.90;;;;;;5062234;28;20207;-71
2024/02/18 04:34:51;;;;;;;64.45;28.40;;;7.10;99.90;;;;;;5061943;28;20129;-70
2024/02/18 04:37:17;;;;;;;67.95;27.77;;;7.10;99.90;;;;;;5061974;28;20029;-69
2024/02/18 04:39:42;;;;;;;69.72;28.40;;;7.00;99.90;;;;;;5061977;28;20029;-71
2024/02/18 04:42:08;;;;;;;64.00;27.25;;;7.00;99.90;;;;;;5061722;28;20033;-70
2024/02/18 04:44:33;;;;;;;76.13;29.63;;;7.10;99.90;;;;;;5061772;28;20035;-70
2024/02/18 04:46:59;;;;;;;74.47;29.58;;;7.10;99.90;;;;;;5062174;28;20021;-72
2024/02/18 04:49:25;;;;;;;81.60;31.90;;;7.10;99.90;;;;;;5061488;28;20036;-68
2024/02/18 04:51:51;;;;;;;82.88;30.67;;;7.10;99.90;;;;;;5061633;28;20055;-71
2024/02/18 04:54:16;;;;;;;75.50;31.48;;;7.10;99.90;;;;;;5061862;28;20032;-69
2024/02/18 04:56:42;;;;;;;81.07;31.33;;;7.10;99.90;;;;;;5061022;28;20028;-72
2024/02/18 04:59:08;;;;;;;85.93;31.98;;;7.10;99.90;;;;;;5060448;28;20087;-70
2024/02/18 05:01:33;;;;;;;82.18;31.92;;;7.10;99.90;;;;;;5058112;28;20157;-71
2024/02/18 05:03:59;;;;;;;87.38;33.88;;;7.20;99.90;;;;;;5058662;28;20021;-71
2024/02/18 05:06:25;;;;;;;85.95;33.60;;;7.10;99.90;;;;;;5059042;28;20025;-69
2024/02/18 05:08:50;;;;;;;91.28;34.05;;;7.20;99.90;;;;;;5061177;28;20065;-68
2024/02/18 05:11:16;;;;;;;87.10;35.00;;;7.20;99.90;;;;;;5061417;28;20485;-68
2024/02/18 05:13:42;;;;;;;90.85;36.00;;;7.20;99.90;;;;;;5061502;28;20021;-68
2024/02/18 05:16:10;;;;;;;94.28;35.28;;;7.20;99.90;;;;;;5061862;28;20031;-70
2024/02/18 05:18:36;;;;;;;91.47;35.75;;;7.20;99.90;;;;;;5061296;28;20055;-68
2024/02/18 05:21:06;;;;;;;98.95;39.80;;;7.30;99.90;;;;;;5061541;28;20025;-69
2024/02/18 05:23:35;;;;;;;110.03;38.75;;;7.30;99.90;;;;;;5061408;28;20025;-70
2024/02/18 05:26:02;;;;;;;103.10;39.65;;;7.20;99.90;;;;;;5061195;28;20018;-70
2024/02/18 05:28:27;;;;;;;111.43;42.28;;;7.30;99.90;;;;;;5058999;28;20048;-69
2024/02/18 05:30:53;;;;;;;115.95;42.38;;;7.40;99.90;;;;;;5061399;28;20041;-68
2024/02/18 05:33:19;;;;;;;117.95;43.47;;;7.30;99.90;;;;;;5061056;28;20032;-68
2024/02/18 05:35:44;;;;;;;108.88;40.97;;;7.50;99.90;;;;;;5061269;28;20155;-71
2024/02/18 05:38:10;;;;;;;126.85;41.58;;;7.50;99.90;;;;;;5060664;28;20021;-69
2024/02/18 05:40:35;;;;;;;127.68;45.65;;;7.50;99.90;;;;;;5063060;28;20029;-70
2024/02/18 05:43:01;;;;;;;124.90;43.15;;;7.50;99.90;;;;;;5065444;28;20029;-70
2024/02/18 05:45:31;;;;;;;127.78;44.92;;;7.60;99.90;;;;;;5065649;28;20031;-70
2024/02/18 05:47:57;;;;;;;133.80;43.85;;;7.60;99.90;;;;;;5058116;28;20033;-71
2024/02/18 05:50:22;;;;;;;137.00;42.83;;;7.60;99.90;;;;;;5062208;28;20021;-68
2024/02/18 05:52:48;;;;;;;140.13;46.13;;;7.60;99.90;;;;;;5065012;28;20087;-69
2024/02/18 05:55:13;;;;;;;131.10;45.60;;;7.70;99.90;;;;;;5064755;28;20036;-68
2024/02/18 05:57:39;;;;;;;142.50;49.25;;;7.70;99.90;;;;;;5065011;28;20017;-69
2024/02/18 06:00:05;;;;;;;143.23;47.08;;;7.70;99.90;;;;;;5061043;28;20722;-69
2024/02/18 06:02:30;;;;;;;135.10;44.72;;;7.70;99.90;;;;;;5061943;28;20029;-69
2024/02/18 06:04:56;;;;;;;148.25;47.67;;;7.70;99.90;;;;;;5064305;28;20036;-70
2024/02/18 06:07:22;;;;;;;146.77;48.30;;;7.70;99.90;;;;;;5064442;28;20029;-68
2024/02/18 06:09:47;;;;;;;143.88;47.70;;;7.70;99.90;;;;;;5064316;28;20032;-67
2024/02/18 06:12:14;;;;;;;143.13;48.45;;;7.70;99.90;;;;;;5061942;28;20108;-69
2024/02/18 06:14:39;;;;;;;153.70;51.47;;;7.80;99.90;;;;;;5063294;28;20018;-67
2024/02/18 06:17:05;;;;;;;158.88;49.78;;;7.80;99.90;;;;;;5062186;28;20032;-70
2024/02/18 06:19:31;;;;;;;151.57;48.38;;;7.80;99.90;;;;;;5063892;28;20044;-68
2024/02/18 06:21:56;;;;;;;140.55;48.35;;;7.80;99.90;;;;;;5064085;28;20021;-69
2024/02/18 06:24:27;;;;;;;145.98;47.10;;;7.80;99.90;;;;;;5064221;28;20061;-71
2024/02/18 06:26:55;;;;;;;135.63;45.92;;;7.80;99.90;;;;;;5064318;28;20481;-69
2024/02/18 06:29:21;;;;;;;135.80;46.90;;;7.90;99.90;;;;;;5062988;28;20013;-67
2024/02/18 06:31:47;;;;;;;138.57;47.42;;;7.90;99.90;;;;;;5062721;28;20043;-68
2024/02/18 06:34:12;;;;;;;126.53;44.72;;;7.90;99.90;;;;;;5062919;28;21038;-72
2024/02/18 06:36:38;;;;;;;126.28;44.05;;;8.00;99.90;;;;;;5063996;28;20029;-68
2024/02/18 06:39:04;;;;;;;127.78;45.28;;;8.00;99.90;;;;;;5064168;28;20033;-69
2024/02/18 06:41:31;;;;;;;128.93;44.85;;;8.00;99.90;;;;;;5064546;28;20021;-71
2024/02/18 06:43:56;;;;;;;129.57;44.22;;;8.00;99.90;;;;;;5063916;28;20028;-69
2024/02/18 06:46:22;;;;;;;128.10;46.10;;;8.10;99.90;;;;;;5064256;28;20032;-69
2024/02/18 06:48:51;;;;;;;123.72;42.28;;;8.10;99.90;;;;;;5063986;28;20144;-67
2024/02/18 06:51:17;;;;;;;133.60;43.90;;;8.10;99.90;;;;;;5063202;28;20033;-68
2024/02/18 06:53:43;;;;;;;123.22;44.80;;;8.10;99.90;;;;;;5063138;28;20033;-71
2024/02/18 06:56:09;;;;;;;121.90;42.78;;;8.20;99.90;;;;;;5063145;28;20017;-68
2024/02/18 06:58:34;;;;;;;128.48;41.20;;;8.20;99.90;;;;;;5062509;28;20025;-70
2024/02/18 07:01:00;;;;;;;102.78;40.45;;;8.20;99.90;;;;;;5063153;28;20059;-68
2024/02/18 07:03:25;;;;;;;113.03;40.33;;;8.30;99.90;;;;;;5062071;28;20112;-69
2024/02/18 07:05:51;;;;;;;105.97;39.75;;;8.30;99.90;;;;;;5062417;28;20050;-68
2024/02/18 07:08:17;;;;;;;107.78;38.90;;;8.30;99.90;;;;;;5061328;28;20045;-68
2024/02/18 07:10:42;;;;;;;103.03;38.63;;;8.30;99.90;;;;;;5063271;28;20021;-68
2024/02/18 07:13:08;;;;;;;102.63;38.08;;;8.30;99.90;;;;;;5063648;28;20441;-69
2024/02/18 07:15:33;;;;;;;110.43;39.30;;;8.40;99.90;;;;;;5063826;28;20025;-70
2024/02/18 07:17:59;;;;;;;103.72;39.13;;;8.40;99.90;;;;;;5063377;28;20071;-69
2024/02/18 07:20:25;;;;;;;100.82;37.38;;;8.40;99.90;;;;;;5063495;28;20413;-70
2024/02/18 07:22:50;;;;;;;90.78;34.03;;;8.40;99.90;;;;;;5061447;28;20020;-70
2024/02/18 07:25:16;;;;;;;83.28;33.92;;;8.50;99.90;;;;;;5062908;28;20535;-69
2024/02/18 07:27:41;;;;;;;92.40;35.03;;;8.50;99.90;;;;;;5063121;28;20041;-70
2024/02/18 07:30:08;;;;;;;79.90;29.05;;;8.60;99.90;;;;;;5062328;28;20013;-68
2024/02/18 07:32:33;;;;;;;81.72;31.27;;;8.60;99.90;;;;;;5062123;28;20040;-68
2024/02/18 07:34:59;;;;;;;75.63;30.45;;;8.70;99.90;;;;;;5060596;28;20182;-70
2024/02/18 07:37:24;;;;;;;75.15;28.00;;;8.70;99.90;;;;;;5063033;28;20033;-68
2024/02/18 07:39:50;;;;;;;74.13;25.35;;;8.80;99.90;;;;;;5063029;28;20036;-68
2024/02/18 07:42:15;;;;;;;62.58;25.73;;;8.80;99.90;;;;;;5062572;28;20028;-68
2024/02/18 07:44:47;;;;;;;59.30;24.80;;;8.80;99.90;;;;;;5059535;28;20078;-68
2024/02/18 07:47:13;;;;;;;63.50;25.00;;;8.90;99.90;;;;;;5058233;28;20029;-69
2024/02/18 07:49:38;;;;;;;59.75;25.08;;;8.90;99.90;;;;;;5061492;28;20029;-69
2024/02/18 07:52:05;;;;;;;48.92;20.73;;;8.90;99.90;;;;;;5059271;28;20050;-71
2024/02/18 07:54:31;;;;;;;53.38;22.40;;;9.00;99.90;;;;;;5059002;28;20071;-70
2024/02/18 07:56:57;;;;;;;56.25;21.27;;;9.00;99.90;;;;;;5053746;28;20021;-70
2024/02/18 07:59:22;;;;;;;57.25;21.42;;;9.10;99.90;;;;;;5056369;28;20021;-70
2024/02/18 08:01:48;;;;;;;56.60;21.15;;;9.10;99.90;;;;;;5057719;28;20647;-68
2024/02/18 08:04:14;;;;;;;51.60;21.15;;;9.10;99.90;;;;;;5060325;28;20013;-68
2024/02/18 08:06:40;;;;;;;44.50;20.70;;;9.10;99.90;;;;;;5050417;28;20417;-68
2024/02/18 08:09:09;;;;;;;59.03;21.25;;;9.10;99.90;;;;;;5060631;28;20052;-67
2024/02/18 08:11:35;;;;;;;57.95;21.40;;;9.10;99.90;;;;;;5059684;28;20041;-68
2024/02/18 08:14:01;;;;;;;64.40;23.30;;;9.10;99.90;;;;;;5061051;28;20028;-67
2024/02/18 08:16:28;;;;;;;50.33;21.40;;;9.10;99.90;;;;;;5061772;28;20033;-69
2024/02/18 08:18:54;;;;;;;56.20;21.63;;;9.10;99.90;;;;;;5058732;28;20025;-68
2024/02/18 08:21:21;;;;;;;53.20;22.70;;;9.10;99.90;;;;;;5059330;28;20158;-70
2024/02/18 08:23:46;;;;;;;58.90;22.88;;;9.10;99.90;;;;;;5056869;28;20547;-68
2024/02/18 08:26:25;;;;;;;63.67;20.42;;;9.10;99.90;;;;;;5061040;28;20025;-68
2024/02/18 08:28:52;;;;;;;59.13;19.73;;;9.10;99.90;;;;;;5062219;28;20100;-70
2024/02/18 08:31:18;;;;;;;57.78;21.30;;;9.00;99.90;;;;;;5059623;28;20095;-69
2024/02/18 08:33:48;;;;;;;64.22;22.58;;;9.00;99.90;;;;;;5055759;28;20021;-68
2024/02/18 08:36:14;;;;;;;56.72;21.45;;;9.00;99.90;;;;;;5060788;28;20044;-67
2024/02/18 08:38:40;;;;;;;57.30;22.10;;;9.00;99.90;;;;;;5057914;28;20033;-68
2024/02/18 08:41:06;;;;;;;56.80;22.67;;;9.00;99.90;;;;;;5056775;28;20037;-69
2024/02/18 08:43:35;;;;;;;52.15;20.73;;;9.00;99.90;;;;;;5058528;28;20032;-69
2024/02/18 08:46:01;;;;;;;57.97;22.13;;;8.90;99.90;;;;;;5058741;28;20052;-69
2024/02/18 08:48:28;;;;;;;65.93;24.38;;;8.90;99.90;;;;;;5059460;28;20037;-69
2024/02/18 08:50:53;;;;;;;52.15;22.73;;;8.90;99.90;;;;;;5061481;28;20029;-69
2024/02/18 08:53:19;;;;;;;66.03;23.70;;;8.90;99.90;;;;;;5058084;28;20112;-69
2024/02/18 08:55:46;;;;;;;55.53;20.70;;;8.90;99.90;;;;;;5062434;28;20122;-66
2024/02/18 08:58:11;;;;;;;57.10;21.40;;;8.90;99.90;;;;;;5061617;28;20021;-68
2024/02/18 09:00:37;;;;;;;61.67;22.08;;;8.90;99.90;;;;;;5061658;28;20051;-70
2024/02/18 09:03:03;;;;;;;59.47;21.88;;;8.90;99.90;;;;;;5062534;28;20013;-68
2024/02/18 09:05:28;;;;;;;49.55;20.13;;;8.90;99.90;;;;;;5060481;28;20070;-69
2024/02/18 09:07:54;;;;;;;59.00;22.20;;;8.90;99.90;;;;;;5061461;28;20072;-66
2024/02/18 09:10:19;;;;;;;59.95;22.90;;;8.90;99.90;;;;;;5059772;28;20561;-66
2024/02/18 09:12:45;;;;;;;63.78;20.60;;;8.90;99.90;;;;;;5061819;28;20049;-67
2024/02/18 09:15:11;;;;;;;68.50;21.88;;;8.90;99.90;;;;;;5067387;28;20108;-70
2024/02/18 09:17:37;;;;;;;55.92;22.00;;;8.90;99.90;;;;;;5067884;28;20021;-68
2024/02/18 09:20:03;;;;;;;51.47;20.42;;;8.90;99.90;;;;;;5068384;28;20047;-69
2024/02/18 09:22:29;;;;;;;51.72;19.30;;;8.90;99.90;;;;;;5067706;28;20029;-68
2024/02/18 09:24:58;;;;;;;48.83;18.50;;;8.90;99.90;;;;;;5065734;28;20031;-68
2024/02/18 09:27:23;;;;;;;45.47;18.52;;;8.90;99.90;;;;;;5066138;28;20057;-67
2024/02/18 09:29:50;;;;;;;49.13;19.60;;;8.90;99.90;;;;;;5063933;28;20024;-69
2024/02/18 09:32:15;;;;;;;53.88;19.63;;;8.90;99.90;;;;;;5062128;28;20041;-67
2024/02/18 09:34:41;;;;;;;49.20;17.27;;;9.00;99.90;;;;;;5061935;28;20037;-69
2024/02/18 09:37:06;;;;;;;46.92;19.02;;;9.00;99.90;;;;;;5066509;28;20028;-70
2024/02/18 09:39:32;;;;;;;48.85;17.85;;;9.00;99.90;;;;;;5066399;28;20486;-67
2024/02/18 09:41:58;;;;;;;41.50;16.65;;;9.00;99.90;;;;;;5067530;28;20056;-69
2024/02/18 09:44:26;;;;;;;43.92;16.67;;;9.00;99.90;;;;;;5065410;28;20028;-69
2024/02/18 09:46:53;;;;;;;38.95;16.10;;;9.00;99.90;;;;;;5064792;28;20029;-71
2024/02/18 09:49:20;;;;;;;40.97;15.63;;;9.00;99.90;;;;;;5060688;28;20025;-66
2024/02/18 09:51:48;;;;;;;47.53;17.05;;;9.00;99.90;;;;;;5066732;28;20040;-66
2024/02/18 09:54:14;;;;;;;43.80;16.48;;;9.00;99.90;;;;;;5065938;28;20061;-70
2024/02/18 09:56:40;;;;;;;38.45;16.17;;;9.00;99.90;;;;;;5059695;28;20029;-70
2024/02/18 09:59:08;;;;;;;43.20;17.55;;;9.00;99.90;;;;;;5055732;28;20738;-69
2024/02/18 10:01:36;;;;;;;36.67;15.23;;;9.00;99.90;;;;;;5065092;28;20021;-66
2024/02/18 10:04:02;;;;;;;39.60;16.35;;;9.00;99.90;;;;;;5064230;28;20013;-67
2024/02/18 10:06:28;;;;;;;39.45;15.55;;;9.00;99.90;;;;;;5066249;28;20035;-70
2024/02/18 10:08:57;;;;;;;37.58;15.85;;;9.00;99.90;;;;;;5064888;28;20071;-67
2024/02/18 10:11:23;;;;;;;41.80;16.23;;;9.10;99.90;;;;;;5065884;28;20043;-67
2024/02/18 10:13:51;;;;;;;39.65;15.55;;;9.20;99.90;;;;;;5063275;28;20025;-67
2024/02/18 10:16:16;;;;;;;38.90;15.43;;;9.00;99.90;;;;;;5061975;28;20120;-67
2024/02/18 10:18:45;;;;;;;38.22;16.02;;;9.00;99.90;;;;;;5065309;28;20024;-67
2024/02/18 10:21:14;;;;;;;39.42;16.50;;;9.00;99.90;;;;;;5066854;28;20064;-67
2024/02/18 10:23:39;;;;;;;37.10;14.63;;;9.10;99.90;;;;;;5064658;28;20021;-68
2024/02/18 10:26:08;;;;;;;39.67;15.48;;;9.10;99.90;;;;;;5061800;28;20105;-69
2024/02/18 10:28:35;;;;;;;31.15;13.13;;;9.10;99.90;;;;;;5060921;28;20085;-68
2024/02/18 10:31:04;;;;;;;38.30;14.93;;;9.00;99.90;;;;;;5062651;28;20053;-70
2024/02/18 10:33:30;;;;;;;33.83;14.35;;;9.10;99.90;;;;;;5062139;28;20021;-69
2024/02/18 10:36:03;;;;;;;27.60;12.98;;;9.10;99.90;;;;;;5061178;28;20035;-68
2024/02/18 10:38:30;;;;;;;35.15;15.23;;;9.10;99.90;;;;;;5063474;28;20021;-71
2024/02/18 10:41:03;;;;;;;37.85;14.35;;;9.10;99.90;;;;;;5063335;28;20119;-67
2024/02/18 10:43:32;;;;;;;36.72;13.68;;;9.10;99.90;;;;;;5060261;28;20033;-72
2024/02/18 10:46:00;;;;;;;34.63;14.35;;;9.20;99.90;;;;;;5060524;28;20462;-68
2024/02/18 10:48:30;;;;;;;32.97;13.55;;;9.20;99.90;;;;;;5062683;28;20377;-70
2024/02/18 10:50:57;;;;;;;30.55;12.15;;;9.10;99.90;;;;;;5057960;28;20612;-72
2024/02/18 10:53:34;;;;;;;30.55;10.57;;;9.10;99.90;;;;;;5063619;28;20021;-68
2024/02/18 10:56:18;;;;;;;34.95;13.93;;;9.10;99.90;;;;;;5062938;28;20032;-67
2024/02/18 10:59:03;;;;;;;36.63;13.85;;;9.10;99.90;;;;;;5061201;28;20082;-67
2024/02/18 11:01:31;;;;;;;43.53;15.13;;;9.10;99.90;;;;;;5060400;28;20040;-67
2024/02/18 11:04:03;;;;;;;33.50;13.75;;;9.10;99.90;;;;;;5061635;28;20025;-67
2024/02/18 11:06:30;;;;;;;30.27;12.73;;;9.10;99.90;;;;;;5061052;28;20021;-67
2024/02/18 11:08:56;;;;;;;29.45;12.30;;;9.10;99.90;;;;;;5062874;28;20049;-67
2024/02/18 11:11:23;;;;;;;39.47;16.00;;;9.10;99.90;;;;;;5062501;28;20041;-69
2024/02/18 11:13:51;;;;;;;34.33;13.68;;;9.10;99.90;;;;;;5063068;28;20086;-67
2024/02/18 11:16:17;;;;;;;33.75;14.27;;;9.10;99.90;;;;;;5062713;28;20120;-67
2024/02/18 11:18:43;;;;;;;34.30;12.57;;;9.10;99.90;;;;;;5062074;28;20048;-69
2024/02/18 11:21:13;;;;;;;25.27;11.75;;;9.10;99.90;;;;;;5062310;28;20044;-68
2024/02/18 11:23:54;;;;;;;31.58;11.90;;;9.10;99.90;;;;;;5063167;28;20028;-71
2024/02/18 11:26:22;;;;;;;35.45;12.20;;;9.00;99.90;;;;;;5062529;28;20037;-68
2024/02/18 11:28:48;;;;;;;32.60;12.63;;;9.00;99.90;;;;;;5062814;28;20037;-65
2024/02/18 11:31:27;;;;;;;29.85;13.73;;;9.00;99.90;;;;;;5063392;28;20041;-67
2024/02/18 11:33:53;;;;;;;30.10;13.57;;;9.00;99.90;;;;;;5062805;28;20043;-68
2024/02/18 11:36:21;;;;;;;36.45;14.45;;;9.00;99.90;;;;;;5060176;28;20122;-68
2024/02/18 11:38:50;;;;;;;35.10;13.30;;;9.00;99.90;;;;;;5059461;28;20035;-67
2024/02/18 11:41:28;;;;;;;24.65;10.32;;;9.00;99.90;;;;;;5060940;28;20028;-66
2024/02/18 11:43:54;;;;;;;26.67;12.88;;;9.00;99.90;;;;;;5061898;28;20461;-69
2024/02/18 11:46:27;;;;;;;33.45;12.45;;;9.00;99.90;;;;;;5060920;28;20029;-67
2024/02/18 11:48:54;;;;;;;28.35;12.75;;;8.90;99.90;;;;;;5060533;28;20075;-69
2024/02/18 11:51:21;;;;;;;31.27;12.98;;;8.90;99.90;;;;;;5060665;28;20322;-67
2024/02/18 11:53:46;;;;;;;31.42;13.05;;;8.90;99.90;;;;;;5062691;28;20020;-67
2024/02/18 11:56:13;;;;;;;27.90;11.60;;;8.90;99.90;;;;;;5061387;28;20041;-68
2024/02/18 11:58:39;;;;;;;28.83;12.75;;;8.90;99.90;;;;;;5061042;28;20059;-69
2024/02/18 12:01:06;;;;;;;28.50;12.77;;;8.90;99.90;;;;;;5062780;28;20032;-70
2024/02/18 12:03:32;;;;;;;34.28;14.20;;;8.80;99.90;;;;;;5060994;28;20032;-71
2024/02/18 12:06:02;;;;;;;26.20;11.35;;;8.90;99.90;;;;;;5060981;28;20025;-69
2024/02/18 12:08:29;;;;;;;34.08;11.90;;;8.90;99.90;;;;;;5061802;28;20045;-68
2024/02/18 12:10:55;;;;;;;22.90;11.82;;;8.90;99.90;;;;;;5058440;28;20025;-67
2024/02/18 12:13:23;;;;;;;34.53;13.48;;;8.90;99.90;;;;;;5061452;28;20043;-68
2024/02/18 12:15:50;;;;;;;32.65;12.80;;;8.90;99.90;;;;;;5062165;28;20037;-67
2024/02/18 12:18:17;;;;;;;28.23;13.50;;;8.90;99.90;;;;;;5061289;28;20036;-66
2024/02/18 12:20:47;;;;;;;28.35;10.63;;;8.90;99.90;;;;;;5063039;28;20056;-69
2024/02/18 12:23:14;;;;;;;31.50;13.27;;;8.90;99.90;;;;;;5062167;28;20021;-67
2024/02/18 12:25:39;;;;;;;29.88;13.55;;;8.90;99.90;;;;;;5062791;28;20024;-67
2024/02/18 12:28:06;;;;;;;29.35;11.95;;;8.80;99.90;;;;;;5062906;28;20040;-67
2024/02/18 12:30:32;;;;;;;30.73;11.80;;;8.80;99.90;;;;;;5062407;28;20053;-68
2024/02/18 12:32:57;;;;;;;27.48;12.20;;;8.90;99.90;;;;;;5057206;28;20052;-69